createdAt,value
2018-12-18T00:01:49.852Z,100243.81
2018-12-18T00:04:20.402Z,100244.64
2018-12-18T00:06:51.542Z,100249.12
2018-12-18T00:09:22.086Z,100244.81
2018-12-18T00:11:59.157Z,100248.08
2018-12-18T00:14:25.967Z,100245.20
2018-12-18T00:16:56.725Z,100238.42
2018-12-18T00:19:27.573Z,100237.30
2018-12-18T00:21:58.412Z,100231.16
2018-12-18T00:24:29.572Z,100235.03
2018-12-18T00:27:00.075Z,100232.85
2018-12-18T00:29:31.293Z,100231.97
2018-12-18T00:32:02.615Z,100232.85
2018-12-18T00:34:33.359Z,100235.91
2018-12-18T00:37:04.502Z,100231.13
2018-12-18T00:39:35.339Z,100225.45
2018-12-18T00:42:08.698Z,100238.06
2018-12-18T00:44:39.885Z,100236.77
2018-12-18T00:47:10.589Z,100233.27
2018-12-18T00:49:41.414Z,100236.34
2018-12-18T00:52:12.381Z,100242.86
2018-12-18T00:54:42.995Z,100241.55
2018-12-18T00:57:13.691Z,100247.65
2018-12-18T00:59:44.484Z,100249.41
2018-12-18T01:02:15.120Z,100248.10
2018-12-18T01:04:47.125Z,100248.55
2018-12-18T01:07:18.336Z,100243.80
2018-12-18T01:09:49.682Z,100252.89
2018-12-18T01:12:20.538Z,100244.61
2018-12-18T01:14:51.239Z,100244.64
2018-12-18T01:17:21.947Z,100256.38
2018-12-18T01:19:52.906Z,100253.31
2018-12-18T01:22:24.032Z,100249.84
2018-12-18T01:24:54.863Z,100248.01
2018-12-18T01:27:25.694Z,100238.91
2018-12-18T01:29:56.646Z,100237.64
2018-12-18T01:32:27.994Z,100243.70
2018-12-18T01:34:58.687Z,100239.37
2018-12-18T01:37:29.712Z,100243.25
2018-12-18T01:40:00.267Z,100238.06
2018-12-18T01:42:31.259Z,100238.95
2018-12-18T01:45:02.063Z,100242.40
2018-12-18T01:47:33.427Z,100240.22
2018-12-18T01:50:05.382Z,100239.76
2018-12-18T01:52:36.253Z,100244.13
2018-12-18T01:55:07.703Z,100244.55
2018-12-18T01:57:38.467Z,100247.65
2018-12-18T02:00:09.702Z,100250.62
2018-12-18T02:02:40.489Z,100248.50
2018-12-18T02:05:11.161Z,100249.77
2018-12-18T02:07:41.910Z,100247.62
2018-12-18T02:10:14.117Z,100249.38
2018-12-18T02:12:52.147Z,100255.90
2018-12-18T02:15:42.523Z,100254.56
2018-12-18T02:18:13.510Z,100243.73
2018-12-18T02:20:47.215Z,100242.86
2018-12-18T02:23:18.564Z,100248.95
2018-12-18T02:25:49.119Z,100248.04
2018-12-18T02:28:20.551Z,100251.95
2018-12-18T02:30:51.657Z,100252.38
2018-12-18T02:33:36.020Z,100255.86
2018-12-18T02:36:23.988Z,100169.63
2018-12-18T02:38:54.574Z,100250.65
2018-12-18T02:41:27.321Z,100258.47
2018-12-18T02:43:58.698Z,100260.23
2018-12-18T02:46:29.875Z,100260.23
2018-12-18T02:49:00.685Z,100259.84
2018-12-18T02:51:31.353Z,100269.78
2018-12-18T02:54:02.363Z,100264.59
2018-12-18T02:56:33.222Z,100260.27
2018-12-18T02:59:04.519Z,100261.14
2018-12-18T03:01:35.434Z,100251.56
2018-12-18T03:04:06.370Z,100264.57
2018-12-18T03:06:36.891Z,100262.38
2018-12-18T03:09:08.303Z,100273.72
2018-12-18T03:11:39.141Z,100270.69
2018-12-18T03:14:10.001Z,100272.88
2018-12-18T03:16:40.817Z,100279.36
2018-12-18T03:19:12.907Z,100279.34
2018-12-18T03:21:43.416Z,100282.00
2018-12-18T03:24:14.532Z,100282.88
2018-12-18T03:26:45.550Z,100284.60
2018-12-18T03:29:17.042Z,100281.16
2018-12-18T03:31:53.086Z,100287.23
2018-12-18T03:34:28.242Z,100283.34
2018-12-18T03:36:57.225Z,100287.69
2018-12-18T03:39:28.327Z,100288.11
2018-12-18T03:41:59.138Z,100285.08
2018-12-18T03:44:29.842Z,100285.52
2018-12-18T03:47:01.013Z,100274.24
2018-12-18T03:49:31.889Z,100276.88
2018-12-18T03:52:02.465Z,100282.94
2018-12-18T03:54:34.346Z,100282.48
2018-12-18T03:57:05.594Z,100295.09
2018-12-18T03:59:36.416Z,100288.61
2018-12-18T04:02:07.276Z,100296.44
2018-12-18T04:04:38.207Z,100287.73
2018-12-18T04:07:09.289Z,100289.45
2018-12-18T04:09:40.735Z,100292.94
2018-12-18T04:12:16.012Z,100295.06
2018-12-18T04:14:46.967Z,100285.53
2018-12-18T04:17:18.126Z,100297.68
2018-12-18T04:19:48.926Z,100300.74
2018-12-18T04:22:20.400Z,100296.82
2018-12-18T04:24:51.547Z,100306.41
2018-12-18T04:27:22.087Z,100312.46
2018-12-18T04:29:52.758Z,100315.95
2018-12-18T04:32:23.630Z,100310.27
2018-12-18T04:34:55.411Z,100307.66
2018-12-18T04:37:26.063Z,100309.41
2018-12-18T04:39:57.200Z,100317.68
2018-12-18T04:42:28.363Z,100309.38
2018-12-18T04:44:59.812Z,100309.83
2018-12-18T04:47:30.604Z,100316.34
2018-12-18T04:50:01.802Z,100323.73
2018-12-18T04:52:33.403Z,100321.13
2018-12-18T04:55:04.727Z,100328.95
2018-12-18T04:57:35.611Z,100331.58
2018-12-18T05:00:08.158Z,100331.97
2018-12-18T05:02:38.991Z,100337.63
2018-12-18T05:05:09.687Z,100338.49
2018-12-18T05:07:40.394Z,100341.03
2018-12-18T05:10:12.130Z,100338.44
2018-12-18T05:12:43.291Z,100342.83
2018-12-18T05:15:14.477Z,100192.77
2018-12-18T05:17:45.271Z,100349.80
2018-12-18T05:20:16.110Z,100084.83
2018-12-18T05:23:12.466Z,100338.52
2018-12-18T05:25:43.307Z,100336.78
2018-12-18T05:28:14.442Z,100340.28
2018-12-18T05:30:45.132Z,100337.66
2018-12-18T05:33:16.233Z,100335.48
2018-12-18T05:35:47.242Z,100339.84
2018-12-18T05:38:19.036Z,100335.05
2018-12-18T05:40:54.209Z,100335.52
2018-12-18T05:43:24.971Z,100339.38
2018-12-18T05:45:55.574Z,100235.70
2018-12-18T05:48:27.199Z,100322.88
2018-12-18T05:50:58.373Z,100323.33
2018-12-18T05:53:40.957Z,100328.52
2018-12-18T05:56:11.643Z,100335.05
2018-12-18T05:58:42.599Z,100338.95
2018-12-18T06:01:13.805Z,100345.02
2018-12-18T06:03:44.807Z,100338.46
2018-12-18T06:06:15.330Z,100329.80
2018-12-18T06:08:45.853Z,100335.91
2018-12-18T06:11:17.047Z,100329.81
2018-12-18T06:13:47.852Z,100325.04
2018-12-18T06:16:18.589Z,100330.69
2018-12-18T06:18:49.515Z,100335.03
2018-12-18T06:21:20.057Z,100342.84
2018-12-18T06:23:51.222Z,100344.59
2018-12-18T06:26:22.418Z,100343.73
2018-12-18T06:28:53.260Z,100343.30
2018-12-18T06:31:40.732Z,100340.28
2018-12-18T06:34:12.079Z,100331.61
2018-12-18T06:36:42.970Z,100330.30
2018-12-18T06:39:14.433Z,100335.55
2018-12-18T06:41:46.081Z,100339.02
2018-12-18T06:44:17.070Z,100335.95
2018-12-18T06:46:48.565Z,100339.02
2018-12-18T06:49:19.721Z,100342.92
2018-12-18T06:51:50.612Z,100345.53
2018-12-18T06:54:21.767Z,100350.29
2018-12-18T06:56:52.973Z,100351.59
2018-12-18T06:59:23.582Z,100356.35
2018-12-18T07:01:54.405Z,100355.08
2018-12-18T07:04:25.200Z,100356.79
2018-12-18T07:06:56.206Z,100338.55
2018-12-18T07:09:27.265Z,100373.29
2018-12-18T07:11:58.198Z,100378.08
2018-12-18T07:14:29.679Z,100376.34
2018-12-18T07:17:18.849Z,100375.05
2018-12-18T07:19:49.678Z,100378.95
2018-12-18T07:22:20.471Z,100388.05
2018-12-18T07:24:51.450Z,100393.27
2018-12-18T07:27:22.754Z,100392.38
2018-12-18T07:29:53.590Z,100386.70
2018-12-18T07:32:24.546Z,100384.98
2018-12-18T07:34:55.270Z,100389.76
2018-12-18T07:37:26.122Z,100390.60
2018-12-18T07:39:56.943Z,100390.59
2018-12-18T07:42:27.789Z,100398.42
2018-12-18T07:44:58.356Z,100401.91
2018-12-18T07:47:29.134Z,100408.42
2018-12-18T07:50:00.600Z,100403.64
2018-12-18T07:52:32.368Z,100408.84
2018-12-18T07:55:03.727Z,100405.78
2018-12-18T07:57:34.495Z,100406.61
2018-12-18T08:00:05.690Z,100410.02
2018-12-18T08:02:36.786Z,100411.75
2018-12-18T08:05:08.446Z,100416.52
2018-12-18T08:07:39.328Z,100411.23
2018-12-18T08:10:10.232Z,100412.56
2018-12-18T08:12:40.763Z,100414.27
2018-12-18T08:15:12.089Z,100415.53
2018-12-18T08:17:42.875Z,100413.72
2018-12-18T08:20:13.676Z,100413.77
2018-12-18T08:22:57.782Z,100408.08
2018-12-18T08:25:48.667Z,100410.18
2018-12-18T08:28:19.417Z,100405.97
2018-12-18T08:30:50.103Z,100378.27
2018-12-18T08:33:21.367Z,100415.15
2018-12-18T08:35:52.079Z,100403.44
2018-12-18T08:38:23.317Z,100412.23
2018-12-18T08:40:54.723Z,100413.99
2018-12-18T08:43:25.423Z,100410.95
2018-12-18T08:45:56.190Z,100413.51
2018-12-18T08:48:28.204Z,100423.07
2018-12-18T08:50:59.354Z,100423.92
2018-12-18T08:53:30.712Z,100418.25
2018-12-18T08:56:03.228Z,100427.39
2018-12-18T08:58:34.083Z,100423.44
2018-12-18T09:01:05.227Z,100422.16
2018-12-18T09:03:35.817Z,100423.86
2018-12-18T09:06:06.964Z,100420.76
2018-12-18T09:08:38.053Z,100426.86
2018-12-18T09:11:09.303Z,100422.91
2018-12-18T09:13:40.030Z,100419.45
2018-12-18T09:16:16.199Z,100420.76
2018-12-18T09:18:47.214Z,100419.45
2018-12-18T09:21:17.924Z,100424.67
2018-12-18T09:23:49.332Z,100421.47
2018-12-18T09:26:20.346Z,100422.52
2018-12-18T09:28:51.291Z,100416.98
2018-12-18T09:31:22.026Z,100416.92
2018-12-18T09:33:53.650Z,100410.03
2018-12-18T09:36:24.163Z,100415.57
2018-12-18T09:39:00.395Z,100414.02
2018-12-18T09:41:35.643Z,100407.33
2018-12-18T09:44:11.392Z,100408.55
2018-12-18T09:46:52.957Z,100405.88
2018-12-18T09:49:31.751Z,100407.27
2018-12-18T09:52:03.065Z,100402.73
2018-12-18T09:54:34.763Z,100399.21
2018-12-18T09:57:09.224Z,100395.64
2018-12-18T09:59:40.916Z,100400.38
2018-12-18T10:02:12.302Z,100389.17
2018-12-18T10:04:43.758Z,100390.66
2018-12-18T10:07:14.986Z,100390.53
2018-12-18T10:09:45.760Z,100390.78
2018-12-18T10:12:20.731Z,100381.45
2018-12-18T10:14:51.731Z,100384.16
2018-12-18T10:17:22.749Z,100381.75
2018-12-18T10:19:53.483Z,100390.14
2018-12-18T10:22:24.388Z,100383.11
2018-12-18T10:24:55.155Z,100375.08
2018-12-18T10:27:26.559Z,100370.65
2018-12-18T10:29:57.363Z,100368.67
2018-12-18T10:32:28.281Z,100365.57
2018-12-18T10:34:59.326Z,100354.13
2018-12-18T10:37:30.038Z,100355.45
2018-12-18T10:40:00.923Z,100351.17
2018-12-18T10:42:32.773Z,100345.06
2018-12-18T10:45:03.770Z,100345.36
2018-12-18T10:47:34.878Z,100341.05
2018-12-18T10:50:07.014Z,100337.74
2018-12-18T10:52:37.941Z,100338.43
2018-12-18T10:55:09.573Z,100339.09
2018-12-18T10:57:41.063Z,100338.28
2018-12-18T11:03:04.958Z,100324.45
2018-12-18T11:05:37.468Z,100328.17
2018-12-18T11:08:08.097Z,100322.84
2018-12-18T11:10:38.954Z,100324.91
2018-12-18T11:13:15.625Z,100319.19
2018-12-18T11:16:01.788Z,100312.03
2018-12-18T11:18:35.489Z,100310.55
2018-12-18T11:21:06.396Z,100306.84
2018-12-18T11:23:37.164Z,100309.47
2018-12-18T11:26:14.916Z,100294.36
2018-12-18T11:28:51.348Z,100295.16
2018-12-18T11:31:34.271Z,100293.58
2018-12-18T11:34:04.799Z,100285.67
2018-12-18T11:36:35.620Z,100284.02
2018-12-18T11:39:08.244Z,100282.73
2018-12-18T11:41:39.435Z,100284.37
2018-12-18T11:44:10.226Z,100283.99
2018-12-18T11:46:41.370Z,100279.62
2018-12-18T11:49:12.442Z,100280.71
2018-12-18T11:51:43.338Z,100275.00
2018-12-18T11:54:15.455Z,100279.05
2018-12-18T11:56:47.173Z,100282.16
2018-12-18T11:59:23.960Z,100270.38
2018-12-18T12:02:16.699Z,100280.75
2018-12-18T12:04:47.347Z,100286.15
2018-12-18T12:07:18.240Z,100281.90
2018-12-18T12:09:51.797Z,100286.23
2018-12-18T12:12:28.045Z,100283.36
2018-12-18T12:15:00.439Z,100281.11
2018-12-18T12:17:34.129Z,100279.27
2018-12-18T12:20:05.823Z,100275.47
2018-12-18T12:22:36.662Z,100272.70
2018-12-18T12:25:10.187Z,100276.80
2018-12-18T12:27:46.911Z,99816.86
2018-12-18T12:33:12.780Z,100269.73
2018-12-18T12:35:43.339Z,100275.51
2018-12-18T12:38:14.379Z,100274.98
2018-12-18T12:40:45.109Z,100283.44
2018-12-18T12:43:19.653Z,100280.89
2018-12-18T12:45:50.603Z,100282.01
2018-12-18T12:48:23.831Z,100275.30
2018-12-18T12:50:55.109Z,100272.55
2018-12-18T12:53:26.131Z,100274.74
2018-12-18T12:55:58.364Z,100271.13
2018-12-18T12:58:29.035Z,100271.76
2018-12-18T13:01:00.179Z,100264.64
2018-12-18T13:03:32.245Z,100264.66
2018-12-18T13:06:03.371Z,100267.97
2018-12-18T13:08:36.980Z,100260.13
2018-12-18T13:11:08.842Z,100258.61
2018-12-18T13:13:40.213Z,100267.66
2018-12-18T13:16:11.038Z,100264.39
2018-12-18T13:18:42.183Z,100258.80
2018-12-18T13:21:13.487Z,100255.70
2018-12-18T13:23:44.688Z,100261.91
2018-12-18T13:26:15.507Z,100262.00
2018-12-18T13:28:46.249Z,100258.79
2018-12-18T13:31:16.808Z,100254.70
2018-12-18T13:33:47.513Z,100263.83
2018-12-18T13:36:19.026Z,100263.63
2018-12-18T13:38:50.205Z,100263.47
2018-12-18T13:41:20.867Z,100259.84
2018-12-18T13:43:52.124Z,100265.27
2018-12-18T13:49:29.761Z,100271.34
2018-12-18T13:52:00.457Z,100270.13
2018-12-18T13:54:31.307Z,100268.40
2018-12-18T13:57:03.693Z,100260.41
2018-12-18T13:59:35.681Z,100264.95
2018-12-18T14:02:06.603Z,100268.73
2018-12-18T14:04:37.340Z,100270.27
2018-12-18T14:07:08.034Z,100263.80
2018-12-18T14:09:38.920Z,100260.81
2018-12-18T14:12:09.697Z,100261.15
2018-12-18T14:14:40.409Z,100259.27
2018-12-18T14:17:11.223Z,100264.27
2018-12-18T14:19:41.911Z,100268.09
2018-12-18T14:22:12.801Z,100265.88
2018-12-18T14:24:43.571Z,100268.34
2018-12-18T14:27:16.728Z,100262.67
2018-12-18T14:29:49.244Z,100265.00
2018-12-18T14:32:19.782Z,100255.07
2018-12-18T14:34:51.405Z,100259.34
2018-12-18T14:37:23.394Z,100260.02
2018-12-18T14:39:55.235Z,100254.47
2018-12-18T14:42:28.313Z,100252.24
2018-12-18T14:44:59.494Z,100259.95
2018-12-18T14:47:31.721Z,100260.81
2018-12-18T14:50:02.875Z,100261.39
2018-12-18T14:52:33.556Z,100258.53
2018-12-18T14:55:04.711Z,100256.46
2018-12-18T14:57:35.689Z,100246.05
2018-12-18T15:00:07.331Z,100244.76
2018-12-18T15:02:38.058Z,100254.56
2018-12-18T15:05:08.958Z,100250.63
2018-12-18T15:07:39.802Z,100255.52
2018-12-18T15:10:10.499Z,100247.30
2018-12-18T15:12:46.658Z,100250.26
2018-12-18T15:15:35.540Z,100241.80
2018-12-18T15:18:13.743Z,100247.59
2018-12-18T15:20:57.322Z,100244.25
2018-12-18T15:23:29.459Z,100237.57
2018-12-18T15:26:01.640Z,100225.60
2018-12-18T15:28:32.890Z,100223.64
2018-12-18T15:31:03.835Z,100224.24
2018-12-18T15:33:34.743Z,100227.22
2018-12-18T15:36:05.737Z,100231.91
2018-12-18T15:38:36.541Z,100240.61
2018-12-18T15:41:22.991Z,100251.47
2018-12-18T15:43:53.822Z,100244.69
2018-12-18T15:46:24.898Z,100251.89
2018-12-18T15:48:55.555Z,100248.01
2018-12-18T15:51:26.461Z,100246.88
2018-12-18T15:53:57.228Z,100249.20
2018-12-18T15:56:27.909Z,100254.88
2018-12-18T15:58:58.599Z,100256.72
2018-12-18T16:01:29.694Z,100254.11
2018-12-18T16:04:00.588Z,100259.12
2018-12-18T16:06:31.420Z,100252.17
2018-12-18T16:09:02.468Z,100252.93
2018-12-18T16:11:33.417Z,100250.17
2018-12-18T16:14:04.055Z,100255.25
2018-12-18T16:16:34.782Z,100254.66
2018-12-18T16:19:05.364Z,100251.50
2018-12-18T16:21:36.341Z,100259.49
2018-12-18T16:24:07.286Z,100268.59
2018-12-18T16:26:38.074Z,100265.18
2018-12-18T16:29:08.906Z,100262.15
2018-12-18T16:31:39.658Z,100265.59
2018-12-18T16:34:10.710Z,100268.13
2018-12-18T16:36:41.650Z,100262.53
2018-12-18T16:39:12.629Z,100262.88
2018-12-18T16:41:43.794Z,100255.02
2018-12-18T16:44:14.591Z,100172.24
2018-12-18T16:46:47.536Z,100255.50
2018-12-18T16:49:18.422Z,100261.16
2018-12-18T16:51:49.655Z,100261.66
2018-12-18T16:54:21.261Z,100252.12
2018-12-18T16:56:52.019Z,100252.12
2018-12-18T16:59:24.663Z,100252.41
2018-12-18T17:01:55.930Z,100255.92
2018-12-18T17:04:27.740Z,100248.89
2018-12-18T17:06:58.418Z,100245.44
2018-12-18T17:09:29.555Z,100208.25
2018-12-18T17:12:00.617Z,100235.56
2018-12-18T17:14:31.417Z,100234.64
2018-12-18T17:17:03.611Z,100234.89
2018-12-18T17:19:35.016Z,100234.63
2018-12-18T17:22:05.748Z,100235.73
2018-12-18T17:24:36.590Z,100227.98
2018-12-18T17:27:07.863Z,100240.28
2018-12-18T17:29:38.425Z,100242.48
2018-12-18T17:32:09.444Z,100238.20
2018-12-18T17:34:39.924Z,100233.70
2018-12-18T17:37:10.624Z,100245.33
2018-12-18T17:39:41.447Z,100235.50
2018-12-18T17:42:12.058Z,100248.45
2018-12-18T17:44:44.694Z,100246.20
2018-12-18T17:47:15.691Z,100253.45
2018-12-18T17:49:46.512Z,100256.70
2018-12-18T17:52:17.686Z,100258.89
2018-12-18T17:54:48.501Z,100258.22
2018-12-18T17:57:19.268Z,100254.88
2018-12-18T17:59:50.171Z,100253.68
2018-12-18T18:02:20.852Z,100252.30
2018-12-18T18:04:51.829Z,100254.24
2018-12-18T18:07:23.870Z,100261.66
2018-12-18T18:09:54.759Z,100256.34
2018-12-18T18:12:29.931Z,100255.02
2018-12-18T18:14:57.943Z,100256.95
2018-12-18T18:17:28.830Z,100252.27
2018-12-18T18:20:00.405Z,100247.48
2018-12-18T18:22:31.823Z,100245.53
2018-12-18T18:25:02.839Z,100251.73
2018-12-18T18:27:34.159Z,100258.30
2018-12-18T18:30:06.035Z,100250.12
2018-12-18T18:32:36.948Z,100248.41
2018-12-18T18:35:07.912Z,100241.36
2018-12-18T18:37:38.509Z,100240.94
2018-12-18T18:40:10.036Z,100240.58
2018-12-18T18:42:40.822Z,100233.62
2018-12-18T18:45:13.035Z,100228.24
2018-12-18T18:48:06.790Z,100225.20
2018-12-18T18:50:37.441Z,100228.45
2018-12-18T18:53:08.488Z,100233.95
2018-12-18T18:55:49.742Z,100233.25
2018-12-18T18:58:20.704Z,100231.22
2018-12-18T19:00:51.749Z,100226.93
2018-12-18T19:03:22.370Z,100224.18
2018-12-18T19:06:04.002Z,100224.69
2018-12-18T19:08:35.636Z,100222.17
2018-12-18T19:11:06.308Z,100222.16
2018-12-18T19:13:37.279Z,100216.53
2018-12-18T19:16:08.022Z,100222.67
2018-12-18T19:18:38.990Z,100214.89
2018-12-18T19:21:10.194Z,100219.23
2018-12-18T19:23:40.779Z,100215.30
2018-12-18T19:26:11.449Z,100217.45
2018-12-18T19:28:42.676Z,100217.47
2018-12-18T19:31:13.744Z,100217.45
2018-12-18T19:33:44.526Z,100218.33
2018-12-18T19:36:16.070Z,100221.35
2018-12-18T19:38:46.874Z,100216.15
2018-12-18T19:41:17.654Z,100224.79
2018-12-18T19:43:48.620Z,100220.41
2018-12-18T19:46:20.630Z,100221.50
2018-12-18T19:48:51.327Z,100225.41
2018-12-18T19:51:22.531Z,100223.78
2018-12-18T19:53:53.475Z,100216.92
2018-12-18T19:56:25.243Z,100223.05
2018-12-18T19:58:56.584Z,100218.77
2018-12-18T20:01:28.354Z,100220.95
2018-12-18T20:03:59.295Z,100228.27
2018-12-18T20:06:30.993Z,100225.09
2018-12-18T20:09:06.253Z,100240.45
2018-12-18T20:11:37.221Z,100239.98
2018-12-18T20:14:09.196Z,100235.92
2018-12-18T20:16:40.857Z,100219.05
2018-12-18T20:19:11.913Z,100226.39
2018-12-18T20:21:44.831Z,100235.19
2018-12-18T20:24:15.854Z,100229.93
2018-12-18T20:26:46.686Z,100227.34
2018-12-18T20:29:18.851Z,100228.20
2018-12-18T20:31:49.872Z,100187.96
2018-12-18T20:34:20.940Z,100227.02
2018-12-18T20:36:51.775Z,100227.02
2018-12-18T20:39:22.675Z,100237.88
2018-12-18T20:41:53.769Z,100237.02
2018-12-18T20:44:26.118Z,100235.72
2018-12-18T20:46:57.059Z,100234.41
2018-12-18T20:49:28.307Z,100233.55
2018-12-18T20:52:00.050Z,100223.98
2018-12-18T20:54:31.583Z,100212.30
2018-12-18T20:57:02.743Z,100214.45
2018-12-18T20:59:33.482Z,100220.55
2018-12-18T21:02:04.543Z,100219.66
2018-12-18T21:04:35.497Z,100216.20
2018-12-18T21:07:08.124Z,100212.28
2018-12-18T21:09:41.560Z,100210.55
2018-12-18T21:12:12.593Z,100214.42
2018-12-18T21:14:43.511Z,100210.46
2018-12-18T21:17:14.880Z,100213.44
2018-12-18T21:19:46.259Z,100216.11
2018-12-18T21:22:18.883Z,100209.20
2018-12-18T21:24:49.859Z,100212.25
2018-12-18T21:27:21.098Z,100199.67
2018-12-18T21:29:51.962Z,100191.88
2018-12-18T21:32:22.587Z,100029.77
2018-12-18T21:34:53.300Z,100186.13
2018-12-18T21:37:25.104Z,100190.35
2018-12-18T21:39:56.753Z,100189.08
2018-12-18T21:42:27.476Z,100180.48
2018-12-18T21:44:58.831Z,100185.20
2018-12-18T21:47:29.695Z,100191.72
2018-12-18T21:50:00.525Z,100184.99
2018-12-18T21:52:31.094Z,100176.92
2018-12-18T21:55:02.620Z,100179.00
2018-12-18T21:57:34.665Z,100180.19
2018-12-18T22:00:08.958Z,100179.53
2018-12-18T22:02:40.169Z,100147.33
2018-12-18T22:05:11.455Z,100176.11
2018-12-18T22:07:44.330Z,100173.86
2018-12-18T22:10:18.829Z,100175.34
2018-12-18T22:13:05.738Z,100174.75
2018-12-18T22:15:38.010Z,100168.37
2018-12-18T22:18:09.348Z,100163.52
2018-12-18T22:20:47.457Z,100156.92
2018-12-18T22:23:19.021Z,100148.71
2018-12-18T22:25:57.437Z,100141.83
2018-12-18T22:28:28.410Z,100136.17
2018-12-18T22:31:01.679Z,100143.56
2018-12-18T22:33:35.675Z,100134.09
2018-12-18T22:36:06.974Z,100132.23
2018-12-18T22:38:43.552Z,100124.98
2018-12-18T22:41:12.370Z,100133.70
2018-12-18T22:43:43.456Z,100139.20
2018-12-18T22:46:15.614Z,100134.38
2018-12-18T22:48:47.276Z,100139.23
2018-12-18T22:51:19.020Z,100127.59
2018-12-18T22:53:49.635Z,100134.50
2018-12-18T22:56:20.370Z,100131.49
2018-12-18T22:58:51.833Z,100122.77
2018-12-18T23:01:28.240Z,100126.23
2018-12-18T23:03:58.934Z,100128.73
2018-12-18T23:06:31.359Z,100110.67
2018-12-18T23:09:04.579Z,100111.13
2018-12-18T23:11:35.833Z,100109.48
2018-12-18T23:14:07.825Z,100075.27
2018-12-18T23:16:40.993Z,100101.70
2018-12-18T23:19:12.356Z,100099.55
2018-12-18T23:21:43.251Z,100100.39
2018-12-18T23:24:13.821Z,100096.03
2018-12-18T23:26:45.062Z,100098.67
2018-12-18T23:29:17.802Z,100099.50
2018-12-18T23:31:49.508Z,100096.06
2018-12-18T23:34:21.396Z,100099.09
2018-12-18T23:36:52.254Z,100097.81
2018-12-18T23:39:23.111Z,100093.01
2018-12-18T23:41:54.089Z,100086.97
2018-12-18T23:44:24.901Z,100084.74
2018-12-18T23:46:55.810Z,100084.77
2018-12-18T23:49:26.549Z,100084.25
2018-12-18T23:51:57.639Z,100083.55
2018-12-18T23:54:29.242Z,100079.99
2018-12-18T23:57:00.610Z,100072.66
2018-12-18T23:59:31.391Z,100075.14
